sensor_id;sensor_type;location;lat;lon;timestamp;temperature;humidity
2327;DHT22;1174;51.588;7.328;2023-02-23T00:01:34;11.70;99.90
2327;DHT22;1174;51.588;7.328;2023-02-23T00:04:04;11.70;99.90
2327;DHT22;1174;51.588;7.328;2023-02-23T00:06:32;11.70;99.90
2327;DHT22;1174;51.588;7.328;2023-02-23T00:09:01;11.60;99.90
2327;DHT22;1174;51.588;7.328;2023-02-23T00:11:36;11.70;99.90
2327;DHT22;1174;51.588;7.328;2023-02-23T00:14:03;11.70;99.90
2327;DHT22;1174;51.588;7.328;2023-02-23T00:16:30;11.70;99.90
2327;DHT22;1174;51.588;7.328;2023-02-23T00:18:57;11.70;99.90
2327;DHT22;1174;51.588;7.328;2023-02-23T00:21:29;11.70;99.90
2327;DHT22;1174;51.588;7.328;2023-02-23T00:23:58;11.80;99.90
2327;DHT22;1174;51.588;7.328;2023-02-23T00:26:27;11.80;99.90
2327;DHT22;1174;51.588;7.328;2023-02-23T00:28:56;11.80;99.90
2327;DHT22;1174;51.588;7.328;2023-02-23T00:31:25;11.80;99.90
2327;DHT22;1174;51.588;7.328;2023-02-23T00:33:53;11.80;99.90
2327;DHT22;1174;51.588;7.328;2023-02-23T00:36:22;11.80;99.90
2327;DHT22;1174;51.588;7.328;2023-02-23T00:38:53;11.90;99.90
2327;DHT22;1174;51.588;7.328;2023-02-23T00:41:21;11.90;99.90
2327;DHT22;1174;51.588;7.328;2023-02-23T00:43:53;12.00;99.90
2327;DHT22;1174;51.588;7.328;2023-02-23T00:46:22;12.00;99.90
2327;DHT22;1174;51.588;7.328;2023-02-23T00:48:52;11.90;99.90
2327;DHT22;1174;51.588;7.328;2023-02-23T00:51:20;12.00;99.90
2327;DHT22;1174;51.588;7.328;2023-02-23T00:53:48;11.90;99.90
2327;DHT22;1174;51.588;7.328;2023-02-23T00:56:16;11.70;99.90
2327;DHT22;1174;51.588;7.328;2023-02-23T00:58:45;11.70;99.90
2327;DHT22;1174;51.588;7.328;2023-02-23T01:01:15;11.80;99.90
2327;DHT22;1174;51.588;7.328;2023-02-23T01:03:43;11.90;99.90
2327;DHT22;1174;51.588;7.328;2023-02-23T01:06:12;11.90;99.90
2327;DHT22;1174;51.588;7.328;2023-02-23T01:08:41;11.80;99.90
2327;DHT22;1174;51.588;7.328;2023-02-23T01:11:09;11.80;99.90
2327;DHT22;1174;51.588;7.328;2023-02-23T01:13:39;11.70;99.90
2327;DHT22;1174;51.588;7.328;2023-02-23T01:16:09;11.70;99.90
2327;DHT22;1174;51.588;7.328;2023-02-23T01:18:37;11.80;99.90
2327;DHT22;1174;51.588;7.328;2023-02-23T01:21:12;11.80;99.90
2327;DHT22;1174;51.588;7.328;2023-02-23T01:23:42;11.80;99.90
2327;DHT22;1174;51.588;7.328;2023-02-23T01:26:14;11.90;99.90
2327;DHT22;1174;51.588;7.328;2023-02-23T01:28:43;11.80;99.90
2327;DHT22;1174;51.588;7.328;2023-02-23T01:31:10;11.80;99.90
2327;DHT22;1174;51.588;7.328;2023-02-23T01:33:36;11.80;99.90
2327;DHT22;1174;51.588;7.328;2023-02-23T01:36:04;11.70;99.90
2327;DHT22;1174;51.588;7.328;2023-02-23T01:38:31;11.70;99.90
2327;DHT22;1174;51.588;7.328;2023-02-23T01:40:58;11.70;99.90
2327;DHT22;1174;51.588;7.328;2023-02-23T01:43:26;11.80;99.90
2327;DHT22;1174;51.588;7.328;2023-02-23T01:45:55;11.80;99.90
2327;DHT22;1174;51.588;7.328;2023-02-23T01:48:26;11.60;99.90
2327;DHT22;1174;51.588;7.328;2023-02-23T01:50:57;11.70;99.90
2327;DHT22;1174;51.588;7.328;2023-02-23T01:53:26;11.70;99.90
2327;DHT22;1174;51.588;7.328;2023-02-23T01:55:57;11.80;99.90
2327;DHT22;1174;51.588;7.328;2023-02-23T01:58:25;11.70;99.90
2327;DHT22;1174;51.588;7.328;2023-02-23T02:00:56;11.70;99.90
2327;DHT22;1174;51.588;7.328;2023-02-23T02:03:30;11.80;99.90
2327;DHT22;1174;51.588;7.328;2023-02-23T02:06:00;11.80;99.90
2327;DHT22;1174;51.588;7.328;2023-02-23T02:08:29;11.70;99.90
2327;DHT22;1174;51.588;7.328;2023-02-23T02:10:58;11.70;99.90
2327;DHT22;1174;51.588;7.328;2023-02-23T02:13:29;11.70;99.90
2327;DHT22;1174;51.588;7.328;2023-02-23T02:16:23;11.80;99.90
2327;DHT22;1174;51.588;7.328;2023-02-23T02:22:21;11.70;99.90
2327;DHT22;1174;51.588;7.328;2023-02-23T02:25:19;11.70;99.90
2327;DHT22;1174;51.588;7.328;2023-02-23T02:28:15;11.70;99.90
2327;DHT22;1174;51.588;7.328;2023-02-23T02:31:15;11.70;99.90
2327;DHT22;1174;51.588;7.328;2023-02-23T02:34:03;11.80;99.90
2327;DHT22;1174;51.588;7.328;2023-02-23T02:37:08;11.70;99.90
2327;DHT22;1174;51.588;7.328;2023-02-23T02:39:41;11.70;99.90
2327;DHT22;1174;51.588;7.328;2023-02-23T02:42:18;11.70;99.90
2327;DHT22;1174;51.588;7.328;2023-02-23T02:44:52;11.70;99.90
2327;DHT22;1174;51.588;7.328;2023-02-23T02:47:27;11.70;99.90
2327;DHT22;1174;51.588;7.328;2023-02-23T02:49:59;11.70;99.90
2327;DHT22;1174;51.588;7.328;2023-02-23T02:52:34;11.80;99.90
2327;DHT22;1174;51.588;7.328;2023-02-23T02:55:10;11.80;99.90
2327;DHT22;1174;51.588;7.328;2023-02-23T02:57:42;11.80;99.90
2327;DHT22;1174;51.588;7.328;2023-02-23T03:00:15;11.70;99.90
2327;DHT22;1174;51.588;7.328;2023-02-23T03:03:00;11.70;99.90
2327;DHT22;1174;51.588;7.328;2023-02-23T03:05:48;11.80;99.90
2327;DHT22;1174;51.588;7.328;2023-02-23T03:08:38;11.80;99.90
2327;DHT22;1174;51.588;7.328;2023-02-23T03:11:27;11.80;99.90
2327;DHT22;1174;51.588;7.328;2023-02-23T03:14:25;11.80;99.90
2327;DHT22;1174;51.588;7.328;2023-02-23T03:17:16;11.80;99.90
2327;DHT22;1174;51.588;7.328;2023-02-23T03:20:12;11.70;99.90
2327;DHT22;1174;51.588;7.328;2023-02-23T03:23:08;11.80;99.90
2327;DHT22;1174;51.588;7.328;2023-02-23T03:26:01;11.70;99.90
2327;DHT22;1174;51.588;7.328;2023-02-23T03:28:57;11.50;99.90
2327;DHT22;1174;51.588;7.328;2023-02-23T03:31:47;11.50;99.90
2327;DHT22;1174;51.588;7.328;2023-02-23T03:34:36;11.50;99.90
2327;DHT22;1174;51.588;7.328;2023-02-23T03:37:26;11.50;99.90
2327;DHT22;1174;51.588;7.328;2023-02-23T03:40:16;11.50;99.90
2327;DHT22;1174;51.588;7.328;2023-02-23T03:43:06;11.50;99.90
2327;DHT22;1174;51.588;7.328;2023-02-23T03:45:53;11.40;99.90
2327;DHT22;1174;51.588;7.328;2023-02-23T03:48:40;11.50;99.90
2327;DHT22;1174;51.588;7.328;2023-02-23T03:51:28;11.40;99.90
2327;DHT22;1174;51.588;7.328;2023-02-23T03:54:17;11.40;99.90
2327;DHT22;1174;51.588;7.328;2023-02-23T03:57:06;11.40;99.90
2327;DHT22;1174;51.588;7.328;2023-02-23T03:59:55;11.40;99.90
2327;DHT22;1174;51.588;7.328;2023-02-23T04:02:42;11.30;99.90
2327;DHT22;1174;51.588;7.328;2023-02-23T04:05:29;11.20;99.90
2327;DHT22;1174;51.588;7.328;2023-02-23T04:08:17;11.30;99.90
2327;DHT22;1174;51.588;7.328;2023-02-23T04:11:06;11.30;99.90
2327;DHT22;1174;51.588;7.328;2023-02-23T04:13:59;11.40;99.90
2327;DHT22;1174;51.588;7.328;2023-02-23T04:16:27;11.30;99.90
2327;DHT22;1174;51.588;7.328;2023-02-23T04:18:54;11.40;99.90
2327;DHT22;1174;51.588;7.328;2023-02-23T04:21:21;11.30;99.90
2327;DHT22;1174;51.588;7.328;2023-02-23T04:23:47;11.30;99.90
2327;DHT22;1174;51.588;7.328;2023-02-23T04:26:14;11.30;99.90
2327;DHT22;1174;51.588;7.328;2023-02-23T04:28:42;11.30;99.90
2327;DHT22;1174;51.588;7.328;2023-02-23T04:31:09;11.30;99.90
2327;DHT22;1174;51.588;7.328;2023-02-23T04:33:37;11.20;99.90
2327;DHT22;1174;51.588;7.328;2023-02-23T04:36:04;11.30;99.90
2327;DHT22;1174;51.588;7.328;2023-02-23T04:38:31;11.30;99.90
2327;DHT22;1174;51.588;7.328;2023-02-23T04:40:58;11.20;99.90
2327;DHT22;1174;51.588;7.328;2023-02-23T04:43:25;11.20;99.90
2327;DHT22;1174;51.588;7.328;2023-02-23T04:45:52;11.20;99.90
2327;DHT22;1174;51.588;7.328;2023-02-23T04:48:19;11.20;99.90
2327;DHT22;1174;51.588;7.328;2023-02-23T04:50:51;11.30;99.90
2327;DHT22;1174;51.588;7.328;2023-02-23T04:53:18;11.30;99.90
2327;DHT22;1174;51.588;7.328;2023-02-23T04:55:45;11.10;99.90
2327;DHT22;1174;51.588;7.328;2023-02-23T04:58:12;11.10;99.90
2327;DHT22;1174;51.588;7.328;2023-02-23T05:00:39;11.00;99.90
2327;DHT22;1174;51.588;7.328;2023-02-23T05:03:07;11.00;99.90
2327;DHT22;1174;51.588;7.328;2023-02-23T05:05:34;10.90;99.90
2327;DHT22;1174;51.588;7.328;2023-02-23T05:08:03;11.00;99.90
2327;DHT22;1174;51.588;7.328;2023-02-23T05:10:30;11.00;99.90
2327;DHT22;1174;51.588;7.328;2023-02-23T05:12:57;11.00;99.90
2327;DHT22;1174;51.588;7.328;2023-02-23T05:15:25;11.10;99.90
2327;DHT22;1174;51.588;7.328;2023-02-23T05:17:53;11.10;99.90
2327;DHT22;1174;51.588;7.328;2023-02-23T05:20:21;11.10;99.90
2327;DHT22;1174;51.588;7.328;2023-02-23T05:22:48;11.10;99.90
2327;DHT22;1174;51.588;7.328;2023-02-23T05:25:16;11.10;99.90
2327;DHT22;1174;51.588;7.328;2023-02-23T05:27:43;11.00;99.90
2327;DHT22;1174;51.588;7.328;2023-02-23T05:30:10;11.00;99.90
2327;DHT22;1174;51.588;7.328;2023-02-23T05:32:38;11.00;99.90
2327;DHT22;1174;51.588;7.328;2023-02-23T05:35:05;11.00;99.90
2327;DHT22;1174;51.588;7.328;2023-02-23T05:37:33;11.00;99.90
2327;DHT22;1174;51.588;7.328;2023-02-23T05:40:00;11.10;99.90
2327;DHT22;1174;51.588;7.328;2023-02-23T05:42:28;11.10;99.90
2327;DHT22;1174;51.588;7.328;2023-02-23T05:44:55;11.00;99.90
2327;DHT22;1174;51.588;7.328;2023-02-23T05:47:25;11.00;99.90
2327;DHT22;1174;51.588;7.328;2023-02-23T05:49:52;10.90;99.90
2327;DHT22;1174;51.588;7.328;2023-02-23T05:52:19;10.90;99.90
2327;DHT22;1174;51.588;7.328;2023-02-23T05:54:46;11.00;99.90
2327;DHT22;1174;51.588;7.328;2023-02-23T05:57:13;10.90;99.90
2327;DHT22;1174;51.588;7.328;2023-02-23T05:59:41;11.00;99.90
2327;DHT22;1174;51.588;7.328;2023-02-23T06:02:11;10.90;99.90
2327;DHT22;1174;51.588;7.328;2023-02-23T06:04:38;10.90;99.90
2327;DHT22;1174;51.588;7.328;2023-02-23T06:07:05;10.90;99.90
2327;DHT22;1174;51.588;7.328;2023-02-23T06:09:32;11.00;99.90
2327;DHT22;1174;51.588;7.328;2023-02-23T06:11:59;10.90;99.90
2327;DHT22;1174;51.588;7.328;2023-02-23T06:14:26;10.90;99.90
2327;DHT22;1174;51.588;7.328;2023-02-23T06:16:58;10.90;99.90
2327;DHT22;1174;51.588;7.328;2023-02-23T06:19:24;10.90;99.90
2327;DHT22;1174;51.588;7.328;2023-02-23T06:21:51;10.90;99.90
2327;DHT22;1174;51.588;7.328;2023-02-23T06:24:18;11.00;99.90
2327;DHT22;1174;51.588;7.328;2023-02-23T06:26:46;11.00;99.90
2327;DHT22;1174;51.588;7.328;2023-02-23T06:29:13;11.00;99.90
2327;DHT22;1174;51.588;7.328;2023-02-23T06:31:40;10.80;99.90
2327;DHT22;1174;51.588;7.328;2023-02-23T06:34:09;10.80;99.90
2327;DHT22;1174;51.588;7.328;2023-02-23T06:36:36;10.80;99.90
2327;DHT22;1174;51.588;7.328;2023-02-23T06:39:03;10.80;99.90
2327;DHT22;1174;51.588;7.328;2023-02-23T06:41:31;10.80;99.90
2327;DHT22;1174;51.588;7.328;2023-02-23T06:44:00;10.90;99.90
2327;DHT22;1174;51.588;7.328;2023-02-23T06:46:26;10.90;99.90
2327;DHT22;1174;51.588;7.328;2023-02-23T06:48:54;10.90;99.90
2327;DHT22;1174;51.588;7.328;2023-02-23T06:51:22;10.80;99.90
2327;DHT22;1174;51.588;7.328;2023-02-23T06:53:49;10.90;99.90
2327;DHT22;1174;51.588;7.328;2023-02-23T06:56:17;10.90;99.90
2327;DHT22;1174;51.588;7.328;2023-02-23T06:58:44;10.70;99.90
2327;DHT22;1174;51.588;7.328;2023-02-23T07:01:11;10.60;99.90
2327;DHT22;1174;51.588;7.328;2023-02-23T07:03:38;10.60;99.90
2327;DHT22;1174;51.588;7.328;2023-02-23T07:06:05;10.50;99.90
2327;DHT22;1174;51.588;7.328;2023-02-23T07:08:34;10.50;99.90
2327;DHT22;1174;51.588;7.328;2023-02-23T07:11:05;10.60;99.90
2327;DHT22;1174;51.588;7.328;2023-02-23T07:13:33;10.50;99.90
2327;DHT22;1174;51.588;7.328;2023-02-23T07:16:00;10.60;99.90
2327;DHT22;1174;51.588;7.328;2023-02-23T07:18:26;10.70;99.90
2327;DHT22;1174;51.588;7.328;2023-02-23T07:20:53;10.70;99.90
2327;DHT22;1174;51.588;7.328;2023-02-23T07:23:20;10.60;99.90
2327;DHT22;1174;51.588;7.328;2023-02-23T07:25:50;10.50;99.90
2327;DHT22;1174;51.588;7.328;2023-02-23T07:28:17;10.60;99.90
2327;DHT22;1174;51.588;7.328;2023-02-23T07:30:46;10.70;99.90
2327;DHT22;1174;51.588;7.328;2023-02-23T07:33:14;10.70;99.90
2327;DHT22;1174;51.588;7.328;2023-02-23T07:35:41;10.60;99.90
2327;DHT22;1174;51.588;7.328;2023-02-23T07:38:09;10.60;99.90
2327;DHT22;1174;51.588;7.328;2023-02-23T07:40:37;10.70;99.90
2327;DHT22;1174;51.588;7.328;2023-02-23T07:43:05;10.80;99.90
2327;DHT22;1174;51.588;7.328;2023-02-23T07:45:32;10.80;99.90
2327;DHT22;1174;51.588;7.328;2023-02-23T07:47:59;10.80;99.90
2327;DHT22;1174;51.588;7.328;2023-02-23T07:50:26;10.80;99.90
2327;DHT22;1174;51.588;7.328;2023-02-23T07:52:53;10.70;99.90
2327;DHT22;1174;51.588;7.328;2023-02-23T07:55:20;10.60;99.90
2327;DHT22;1174;51.588;7.328;2023-02-23T07:57:47;10.50;99.90
2327;DHT22;1174;51.588;7.328;2023-02-23T08:00:18;10.60;99.90
2327;DHT22;1174;51.588;7.328;2023-02-23T08:02:45;10.50;99.90
2327;DHT22;1174;51.588;7.328;2023-02-23T08:05:11;10.50;99.90
2327;DHT22;1174;51.588;7.328;2023-02-23T08:07:38;10.50;99.90
2327;DHT22;1174;51.588;7.328;2023-02-23T08:10:06;10.60;99.90
2327;DHT22;1174;51.588;7.328;2023-02-23T08:12:33;10.50;99.90
2327;DHT22;1174;51.588;7.328;2023-02-23T08:15:00;10.50;99.90
2327;DHT22;1174;51.588;7.328;2023-02-23T08:17:28;10.50;99.90
2327;DHT22;1174;51.588;7.328;2023-02-23T08:19:55;10.60;99.90
2327;DHT22;1174;51.588;7.328;2023-02-23T08:22:22;10.60;99.90
2327;DHT22;1174;51.588;7.328;2023-02-23T08:24:49;10.70;99.90
2327;DHT22;1174;51.588;7.328;2023-02-23T08:27:16;10.60;99.90
2327;DHT22;1174;51.588;7.328;2023-02-23T08:29:43;10.60;99.90
2327;DHT22;1174;51.588;7.328;2023-02-23T08:32:10;10.60;99.90
2327;DHT22;1174;51.588;7.328;2023-02-23T08:34:39;10.50;99.90
2327;DHT22;1174;51.588;7.328;2023-02-23T08:37:08;10.70;99.90
2327;DHT22;1174;51.588;7.328;2023-02-23T08:39:35;10.70;99.90
2327;DHT22;1174;51.588;7.328;2023-02-23T08:42:03;10.60;99.90
2327;DHT22;1174;51.588;7.328;2023-02-23T08:44:29;10.50;99.90
2327;DHT22;1174;51.588;7.328;2023-02-23T08:46:56;10.40;99.90
2327;DHT22;1174;51.588;7.328;2023-02-23T08:49:24;10.40;99.90
2327;DHT22;1174;51.588;7.328;2023-02-23T08:51:52;10.30;99.90
2327;DHT22;1174;51.588;7.328;2023-02-23T08:54:19;10.30;99.90
2327;DHT22;1174;51.588;7.328;2023-02-23T08:56:46;10.40;99.90
2327;DHT22;1174;51.588;7.328;2023-02-23T08:59:13;10.50;99.90
2327;DHT22;1174;51.588;7.328;2023-02-23T09:01:40;10.50;99.90
2327;DHT22;1174;51.588;7.328;2023-02-23T09:04:07;10.50;99.90
2327;DHT22;1174;51.588;7.328;2023-02-23T09:06:35;10.60;99.90
2327;DHT22;1174;51.588;7.328;2023-02-23T09:09:04;10.60;99.90
2327;DHT22;1174;51.588;7.328;2023-02-23T09:11:31;10.70;99.90
2327;DHT22;1174;51.588;7.328;2023-02-23T09:13:58;10.80;99.90
2327;DHT22;1174;51.588;7.328;2023-02-23T09:16:25;10.80;99.90
2327;DHT22;1174;51.588;7.328;2023-02-23T09:18:52;10.70;99.90
2327;DHT22;1174;51.588;7.328;2023-02-23T09:21:20;10.60;99.90
2327;DHT22;1174;51.588;7.328;2023-02-23T09:23:50;10.50;99.90
2327;DHT22;1174;51.588;7.328;2023-02-23T09:26:21;10.40;99.90
2327;DHT22;1174;51.588;7.328;2023-02-23T09:28:48;10.20;99.90
2327;DHT22;1174;51.588;7.328;2023-02-23T09:31:18;10.30;99.90
2327;DHT22;1174;51.588;7.328;2023-02-23T09:33:45;10.40;99.90
2327;DHT22;1174;51.588;7.328;2023-02-23T09:36:13;10.50;99.90
2327;DHT22;1174;51.588;7.328;2023-02-23T09:38:41;10.50;99.90
2327;DHT22;1174;51.588;7.328;2023-02-23T09:41:43;10.40;99.90
2327;DHT22;1174;51.588;7.328;2023-02-23T09:44:17;10.50;99.90
2327;DHT22;1174;51.588;7.328;2023-02-23T09:46:50;10.50;99.90
2327;DHT22;1174;51.588;7.328;2023-02-23T09:49:23;10.60;99.90
2327;DHT22;1174;51.588;7.328;2023-02-23T09:51:53;10.60;99.90
2327;DHT22;1174;51.588;7.328;2023-02-23T09:54:23;10.60;99.90
2327;DHT22;1174;51.588;7.328;2023-02-23T09:56:54;10.60;99.90
2327;DHT22;1174;51.588;7.328;2023-02-23T09:59:24;10.60;99.90
2327;DHT22;1174;51.588;7.328;2023-02-23T10:02:03;10.60;99.90
2327;DHT22;1174;51.588;7.328;2023-02-23T10:04:37;10.70;99.90
2327;DHT22;1174;51.588;7.328;2023-02-23T10:07:13;10.70;99.90
2327;DHT22;1174;51.588;7.328;2023-02-23T10:09:54;10.50;99.90
2327;DHT22;1174;51.588;7.328;2023-02-23T10:12:31;10.30;99.90
2327;DHT22;1174;51.588;7.328;2023-02-23T10:15:08;10.20;99.90
2327;DHT22;1174;51.588;7.328;2023-02-23T10:17:41;10.40;99.90
2327;DHT22;1174;51.588;7.328;2023-02-23T10:20:18;10.40;99.90
2327;DHT22;1174;51.588;7.328;2023-02-23T10:22:49;10.50;99.90
2327;DHT22;1174;51.588;7.328;2023-02-23T10:25:18;10.40;99.90
2327;DHT22;1174;51.588;7.328;2023-02-23T10:27:49;10.50;99.90
2327;DHT22;1174;51.588;7.328;2023-02-23T10:30:20;10.50;99.90
2327;DHT22;1174;51.588;7.328;2023-02-23T10:32:54;10.60;99.90
2327;DHT22;1174;51.588;7.328;2023-02-23T10:35:25;10.70;99.90
2327;DHT22;1174;51.588;7.328;2023-02-23T10:37:54;10.60;99.90
2327;DHT22;1174;51.588;7.328;2023-02-23T10:40:23;10.50;99.90
2327;DHT22;1174;51.588;7.328;2023-02-23T10:42:51;10.40;99.90
2327;DHT22;1174;51.588;7.328;2023-02-23T10:45:21;10.60;99.90
2327;DHT22;1174;51.588;7.328;2023-02-23T10:47:55;10.70;99.90
2327;DHT22;1174;51.588;7.328;2023-02-23T10:50:23;10.50;99.90
2327;DHT22;1174;51.588;7.328;2023-02-23T10:52:55;10.50;99.90
2327;DHT22;1174;51.588;7.328;2023-02-23T10:55:26;10.40;99.90
2327;DHT22;1174;51.588;7.328;2023-02-23T10:58:09;10.40;99.90
2327;DHT22;1174;51.588;7.328;2023-02-23T11:00:49;10.30;99.90
2327;DHT22;1174;51.588;7.328;2023-02-23T11:03:25;10.20;99.90
2327;DHT22;1174;51.588;7.328;2023-02-23T11:05:53;10.30;99.90
2327;DHT22;1174;51.588;7.328;2023-02-23T11:08:23;10.20;99.90
2327;DHT22;1174;51.588;7.328;2023-02-23T11:10:55;10.10;99.90
2327;DHT22;1174;51.588;7.328;2023-02-23T11:13:26;10.10;99.90
2327;DHT22;1174;51.588;7.328;2023-02-23T11:15:58;10.10;99.90
2327;DHT22;1174;51.588;7.328;2023-02-23T11:18:26;10.00;99.90
2327;DHT22;1174;51.588;7.328;2023-02-23T11:20:54;9.90;99.90
2327;DHT22;1174;51.588;7.328;2023-02-23T11:23:23;10.00;99.90
2327;DHT22;1174;51.588;7.328;2023-02-23T11:25:55;10.10;99.90
2327;DHT22;1174;51.588;7.328;2023-02-23T11:28:29;10.00;99.90
2327;DHT22;1174;51.588;7.328;2023-02-23T11:30:59;10.00;99.90
2327;DHT22;1174;51.588;7.328;2023-02-23T11:33:30;9.90;99.90
2327;DHT22;1174;51.588;7.328;2023-02-23T11:36:13;9.90;99.90
2327;DHT22;1174;51.588;7.328;2023-02-23T11:38:40;10.00;99.90
2327;DHT22;1174;51.588;7.328;2023-02-23T11:41:18;10.20;99.90
2327;DHT22;1174;51.588;7.328;2023-02-23T11:43:48;10.10;99.90
2327;DHT22;1174;51.588;7.328;2023-02-23T11:46:17;10.30;99.90
2327;DHT22;1174;51.588;7.328;2023-02-23T11:48:51;10.20;99.90
2327;DHT22;1174;51.588;7.328;2023-02-23T11:51:29;10.10;99.90
2327;DHT22;1174;51.588;7.328;2023-02-23T11:53:57;10.10;99.90
2327;DHT22;1174;51.588;7.328;2023-02-23T11:56:25;10.20;99.90
2327;DHT22;1174;51.588;7.328;2023-02-23T11:58:57;10.10;99.90
2327;DHT22;1174;51.588;7.328;2023-02-23T12:01:36;10.00;99.90
2327;DHT22;1174;51.588;7.328;2023-02-23T12:04:06;10.00;99.90
2327;DHT22;1174;51.588;7.328;2023-02-23T12:06:37;10.00;99.90
2327;DHT22;1174;51.588;7.328;2023-02-23T12:09:11;10.10;99.90
2327;DHT22;1174;51.588;7.328;2023-02-23T12:11:45;10.10;99.90
2327;DHT22;1174;51.588;7.328;2023-02-23T12:14:26;10.10;99.90
2327;DHT22;1174;51.588;7.328;2023-02-23T12:16:59;10.20;99.90
2327;DHT22;1174;51.588;7.328;2023-02-23T12:19:31;10.30;99.90
2327;DHT22;1174;51.588;7.328;2023-02-23T12:22:06;10.10;99.90
2327;DHT22;1174;51.588;7.328;2023-02-23T12:24:43;10.10;99.90
2327;DHT22;1174;51.588;7.328;2023-02-23T12:27:14;10.00;99.90
2327;DHT22;1174;51.588;7.328;2023-02-23T12:30:03;10.20;99.90
2327;DHT22;1174;51.588;7.328;2023-02-23T12:32:42;10.10;99.90
2327;DHT22;1174;51.588;7.328;2023-02-23T12:35:13;10.20;99.90
2327;DHT22;1174;51.588;7.328;2023-02-23T12:37:45;10.20;99.90
2327;DHT22;1174;51.588;7.328;2023-02-23T12:40:15;10.20;99.90
2327;DHT22;1174;51.588;7.328;2023-02-23T12:42:53;10.20;99.90
2327;DHT22;1174;51.588;7.328;2023-02-23T12:45:27;10.20;99.90
2327;DHT22;1174;51.588;7.328;2023-02-23T12:48:01;10.40;99.90
2327;DHT22;1174;51.588;7.328;2023-02-23T12:50:32;10.30;99.90
2327;DHT22;1174;51.588;7.328;2023-02-23T12:53:06;10.10;99.90
2327;DHT22;1174;51.588;7.328;2023-02-23T12:55:42;10.00;99.90
2327;DHT22;1174;51.588;7.328;2023-02-23T12:58:21;9.90;99.90
2327;DHT22;1174;51.588;7.328;2023-02-23T13:00:58;10.00;99.90
2327;DHT22;1174;51.588;7.328;2023-02-23T13:03:44;10.10;99.90
2327;DHT22;1174;51.588;7.328;2023-02-23T13:06:21;10.00;99.90
2327;DHT22;1174;51.588;7.328;2023-02-23T13:09:03;10.10;99.90
2327;DHT22;1174;51.588;7.328;2023-02-23T13:11:48;10.10;99.90
2327;DHT22;1174;51.588;7.328;2023-02-23T13:14:21;10.20;99.90
2327;DHT22;1174;51.588;7.328;2023-02-23T13:16:54;10.20;99.90
2327;DHT22;1174;51.588;7.328;2023-02-23T13:19:26;10.20;99.90
2327;DHT22;1174;51.588;7.328;2023-02-23T13:22:00;10.20;99.90
2327;DHT22;1174;51.588;7.328;2023-02-23T13:24:35;10.20;99.90
2327;DHT22;1174;51.588;7.328;2023-02-23T13:27:09;10.30;99.90
2327;DHT22;1174;51.588;7.328;2023-02-23T13:29:41;10.30;99.90
2327;DHT22;1174;51.588;7.328;2023-02-23T13:32:14;10.30;99.90
2327;DHT22;1174;51.588;7.328;2023-02-23T13:34:44;10.30;99.90
2327;DHT22;1174;51.588;7.328;2023-02-23T13:37:15;10.20;99.90
2327;DHT22;1174;51.588;7.328;2023-02-23T13:40:01;10.20;99.90
2327;DHT22;1174;51.588;7.328;2023-02-23T13:42:42;10.30;99.90
2327;DHT22;1174;51.588;7.328;2023-02-23T13:45:30;10.20;99.90
2327;DHT22;1174;51.588;7.328;2023-02-23T13:48:14;10.20;99.90
2327;DHT22;1174;51.588;7.328;2023-02-23T13:50:48;10.20;99.90
2327;DHT22;1174;51.588;7.328;2023-02-23T13:53:41;10.10;99.90
2327;DHT22;1174;51.588;7.328;2023-02-23T13:56:09;9.90;99.90
2327;DHT22;1174;51.588;7.328;2023-02-23T13:58:45;9.90;99.90
2327;DHT22;1174;51.588;7.328;2023-02-23T14:01:16;9.80;99.90
2327;DHT22;1174;51.588;7.328;2023-02-23T14:03:51;9.80;99.90
2327;DHT22;1174;51.588;7.328;2023-02-23T14:06:22;9.60;99.90
2327;DHT22;1174;51.588;7.328;2023-02-23T14:08:53;9.60;99.90
2327;DHT22;1174;51.588;7.328;2023-02-23T14:11:39;9.50;99.90
2327;DHT22;1174;51.588;7.328;2023-02-23T14:14:12;9.40;99.90
2327;DHT22;1174;51.588;7.328;2023-02-23T14:16:42;9.50;99.90
2327;DHT22;1174;51.588;7.328;2023-02-23T14:21:59;9.60;99.90
2327;DHT22;1174;51.588;7.328;2023-02-23T14:24:27;9.60;99.90
2327;DHT22;1174;51.588;7.328;2023-02-23T14:30:20;9.80;99.90
2327;DHT22;1174;51.588;7.328;2023-02-23T14:32:50;9.70;99.90
2327;DHT22;1174;51.588;7.328;2023-02-23T14:35:42;9.80;99.90
2327;DHT22;1174;51.588;7.328;2023-02-23T14:38:15;9.80;99.90
2327;DHT22;1174;51.588;7.328;2023-02-23T14:40:51;9.70;99.90
2327;DHT22;1174;51.588;7.328;2023-02-23T14:43:42;9.70;99.90
2327;DHT22;1174;51.588;7.328;2023-02-23T14:46:13;9.70;99.90
2327;DHT22;1174;51.588;7.328;2023-02-23T14:48:44;9.70;99.90
2327;DHT22;1174;51.588;7.328;2023-02-23T14:51:32;9.80;99.90
2327;DHT22;1174;51.588;7.328;2023-02-23T14:54:00;9.80;99.90
2327;DHT22;1174;51.588;7.328;2023-02-23T14:56:27;9.90;99.90
2327;DHT22;1174;51.588;7.328;2023-02-23T14:58:54;9.90;99.90
2327;DHT22;1174;51.588;7.328;2023-02-23T15:01:32;9.90;99.90
2327;DHT22;1174;51.588;7.328;2023-02-23T15:04:10;9.90;99.90
2327;DHT22;1174;51.588;7.328;2023-02-23T15:06:40;9.90;99.90
2327;DHT22;1174;51.588;7.328;2023-02-23T15:09:15;9.90;99.90
2327;DHT22;1174;51.588;7.328;2023-02-23T15:11:47;9.90;99.90
2327;DHT22;1174;51.588;7.328;2023-02-23T15:14:16;9.90;99.90
2327;DHT22;1174;51.588;7.328;2023-02-23T15:16:43;9.80;99.90
2327;DHT22;1174;51.588;7.328;2023-02-23T15:19:16;9.80;99.90
2327;DHT22;1174;51.588;7.328;2023-02-23T15:21:50;9.90;99.90
2327;DHT22;1174;51.588;7.328;2023-02-23T15:24:21;9.90;99.90
2327;DHT22;1174;51.588;7.328;2023-02-23T15:26:52;9.80;99.90
2327;DHT22;1174;51.588;7.328;2023-02-23T15:29:20;9.80;99.90
2327;DHT22;1174;51.588;7.328;2023-02-23T15:31:49;9.80;99.90
2327;DHT22;1174;51.588;7.328;2023-02-23T15:34:18;9.80;99.90
2327;DHT22;1174;51.588;7.328;2023-02-23T15:36:49;9.80;99.90
2327;DHT22;1174;51.588;7.328;2023-02-23T15:39:20;9.90;99.90
2327;DHT22;1174;51.588;7.328;2023-02-23T15:41:48;10.00;99.90
2327;DHT22;1174;51.588;7.328;2023-02-23T15:44:20;9.90;99.90
2327;DHT22;1174;51.588;7.328;2023-02-23T15:46:53;9.90;99.90
2327;DHT22;1174;51.588;7.328;2023-02-23T15:49:21;9.90;99.90
2327;DHT22;1174;51.588;7.328;2023-02-23T15:51:57;9.90;99.90
2327;DHT22;1174;51.588;7.328;2023-02-23T15:54:27;9.80;99.90
2327;DHT22;1174;51.588;7.328;2023-02-23T15:56:58;9.70;99.90
2327;DHT22;1174;51.588;7.328;2023-02-23T15:59:29;9.70;99.90
2327;DHT22;1174;51.588;7.328;2023-02-23T16:01:59;9.60;99.90
2327;DHT22;1174;51.588;7.328;2023-02-23T16:04:29;9.60;99.90
2327;DHT22;1174;51.588;7.328;2023-02-23T16:07:13;9.60;99.90
2327;DHT22;1174;51.588;7.328;2023-02-23T16:09:48;9.70;99.90
2327;DHT22;1174;51.588;7.328;2023-02-23T16:12:18;9.70;99.90
2327;DHT22;1174;51.588;7.328;2023-02-23T16:14:48;9.80;99.90
2327;DHT22;1174;51.588;7.328;2023-02-23T16:17:23;9.80;99.90
2327;DHT22;1174;51.588;7.328;2023-02-23T16:19:54;9.90;99.90
2327;DHT22;1174;51.588;7.328;2023-02-23T16:22:24;9.90;99.90
2327;DHT22;1174;51.588;7.328;2023-02-23T16:24:58;9.70;99.90
2327;DHT22;1174;51.588;7.328;2023-02-23T16:27:27;9.70;99.90
2327;DHT22;1174;51.588;7.328;2023-02-23T16:29:56;9.70;99.90
2327;DHT22;1174;51.588;7.328;2023-02-23T16:32:32;9.80;99.90
2327;DHT22;1174;51.588;7.328;2023-02-23T16:35:01;9.80;99.90
2327;DHT22;1174;51.588;7.328;2023-02-23T16:37:30;9.70;99.90
2327;DHT22;1174;51.588;7.328;2023-02-23T16:39:56;9.50;99.90
2327;DHT22;1174;51.588;7.328;2023-02-23T16:42:27;9.50;99.90
2327;DHT22;1174;51.588;7.328;2023-02-23T16:44:56;9.70;99.90
2327;DHT22;1174;51.588;7.328;2023-02-23T16:47:33;9.70;99.90